Time;durP1;ratioP1;P1;durP2;ratioP2;P2;SDS_P1;SDS_P2;PMS_P1;PMS_P2;Temp;Humidity;BMP_temperature;BMP_pressure;BME280_temperature;BME280_humidity;BME280_pressure;Samples;Min_cycle;Max_cycle;Signal;HPM_P1;HPM_P2
2023/03/05 00:00:09;;;;;;;39.00;21.67;;;;;;;7.41;49.48;97729.09;5050069;28;20441;-72
2023/03/05 00:02:34;;;;;;;50.03;22.10;;;;;;;7.40;49.27;97733.50;5054854;28;20499;-72
2023/03/05 00:05:00;;;;;;;42.13;21.50;;;;;;;7.47;48.74;97726.84;5056241;28;21057;-71
2023/03/05 00:07:25;;;;;;;36.43;20.60;;;;;;;7.44;49.64;97729.69;5048743;28;20207;-71
2023/03/05 00:09:50;;;;;;;39.63;20.60;;;;;;;7.45;49.30;97744.41;5049938;28;20250;-72
2023/03/05 00:12:16;;;;;;;38.30;20.47;;;;;;;7.44;49.80;97734.09;5059947;28;20273;-71
2023/03/05 00:14:41;;;;;;;37.40;20.67;;;;;;;7.38;49.22;97728.38;5049866;28;20305;-71
2023/03/05 00:17:07;;;;;;;35.70;20.20;;;;;;;7.35;49.55;97728.66;5048613;28;20181;-73
2023/03/05 00:19:32;;;;;;;38.43;20.53;;;;;;;7.41;49.58;97732.56;5058195;28;20749;-71
2023/03/05 00:21:58;;;;;;;33.37;20.20;;;;;;;7.44;49.48;97724.47;5049335;28;20273;-71
2023/03/05 00:24:23;;;;;;;37.03;20.23;;;;;;;7.30;49.74;97724.75;5049942;28;20179;-73
2023/03/05 00:26:49;;;;;;;43.10;21.80;;;;;;;7.25;50.27;97722.47;5038783;28;20676;-72
2023/03/05 00:29:17;;;;;;;40.00;21.33;;;;;;;7.37;49.74;97725.91;5061344;28;20202;-72
2023/03/05 00:31:43;;;;;;;39.93;21.30;;;;;;;7.36;49.60;97719.88;5051079;28;20245;-71
2023/03/05 00:34:12;;;;;;;39.00;20.03;;;;;;;7.43;49.72;97716.78;5059842;28;20464;-69
2023/03/05 00:36:43;;;;;;;46.20;21.07;;;;;;;7.42;49.67;97717.72;5052606;28;20422;-71
2023/03/05 00:39:09;;;;;;;35.53;19.10;;;;;;;7.37;49.84;97712.88;5049875;28;20480;-72
2023/03/05 00:41:34;;;;;;;41.90;21.10;;;;;;;7.33;50.48;97716.66;5047784;28;20422;-73
2023/03/05 00:43:59;;;;;;;34.40;19.63;;;;;;;7.40;50.22;97711.78;5051994;28;20463;-71
2023/03/05 00:46:26;;;;;;;36.00;20.37;;;;;;;7.33;50.35;97714.06;5051919;28;20278;-71
2023/03/05 00:48:52;;;;;;;40.53;19.90;;;;;;;7.33;50.31;97714.06;5055891;28;20206;-71
2023/03/05 00:51:18;;;;;;;39.43;20.00;;;;;;;7.19;50.27;97705.53;5051778;28;20421;-70
2023/03/05 00:53:44;;;;;;;36.63;20.83;;;;;;;7.23;50.95;97717.38;5056882;28;20966;-71
2023/03/05 00:56:09;;;;;;;36.60;19.30;;;;;;;7.28;50.34;97708.38;5056925;28;20431;-71
2023/03/05 00:58:35;;;;;;;32.20;19.40;;;;;;;7.27;50.87;97704.13;5041806;28;20183;-72
2023/03/05 01:01:01;;;;;;;36.93;19.37;;;;;;;7.14;50.94;97702.47;5040116;28;20806;-71
2023/03/05 01:03:28;;;;;;;35.47;20.77;;;;;;;7.26;50.68;97699.84;5045876;28;20859;-71
2023/03/05 01:05:54;;;;;;;38.13;19.77;;;;;;;7.31;50.58;97697.72;5054304;28;21007;-71
2023/03/05 01:08:19;;;;;;;44.93;21.60;;;;;;;7.24;50.75;97697.38;5037792;28;20421;-71
2023/03/05 01:10:45;;;;;;;43.93;20.30;;;;;;;7.31;50.90;97693.31;5049364;28;20445;-72
2023/03/05 01:13:10;;;;;;;40.37;20.80;;;;;;;7.34;50.79;97687.03;5059534;28;20200;-71
2023/03/05 01:15:36;;;;;;;35.77;20.00;;;;;;;7.36;50.80;97693.81;5039915;28;20616;-71
2023/03/05 01:18:01;;;;;;;35.03;17.27;;;;;;;7.30;50.66;97686.44;5038364;28;20195;-71
2023/03/05 01:20:26;;;;;;;36.00;19.50;;;;;;;7.26;50.64;97686.81;5038618;28;20260;-70
2023/03/05 01:22:52;;;;;;;35.03;18.90;;;;;;;7.18;50.96;97679.56;5044426;28;20184;-72
2023/03/05 01:25:18;;;;;;;39.00;19.90;;;;;;;7.15;50.89;97678.06;5037479;28;20182;-72
2023/03/05 01:27:44;;;;;;;38.17;18.93;;;;;;;7.17;51.08;97680.53;5048154;28;20190;-72
2023/03/05 01:30:10;;;;;;;37.23;18.37;;;;;;;7.16;51.01;97674.50;5051590;28;20226;-71
2023/03/05 01:32:36;;;;;;;37.10;18.63;;;;;;;7.21;50.57;97677.56;5048562;28;20207;-69
2023/03/05 01:35:04;;;;;;;31.27;18.10;;;;;;;7.23;50.60;97677.47;5066366;28;20437;-69
2023/03/05 01:37:29;;;;;;;35.00;18.80;;;;;;;7.28;50.07;97682.31;5058933;28;20914;-71
2023/03/05 01:39:55;;;;;;;38.20;20.10;;;;;;;7.21;50.38;97664.53;5055160;28;20452;-72
2023/03/05 01:42:20;;;;;;;43.83;20.67;;;;;;;7.21;50.39;97656.69;5059076;28;20562;-69
2023/03/05 01:45:04;;;;;;;38.33;20.13;;;;;;;7.24;50.09;97663.47;5047939;28;20183;-71
2023/03/05 01:47:30;;;;;;;34.17;18.07;;;;;;;7.21;50.03;97659.31;5036135;28;20194;-72
2023/03/05 01:49:55;;;;;;;36.90;18.37;;;;;;;7.14;50.48;97658.13;5060123;28;20453;-71
2023/03/05 01:52:22;;;;;;;38.37;20.30;;;;;;;7.20;50.45;97649.81;5042842;28;20187;-72
2023/03/05 01:54:59;;;;;;;39.77;20.30;;;;;;;7.19;49.96;97642.94;5033636;28;20188;-71
2023/03/05 01:57:29;;;;;;;39.07;19.60;;;;;;;7.18;50.47;97649.13;5026057;28;20426;-72
2023/03/05 01:59:58;;;;;;;36.77;20.03;;;;;;;7.16;50.46;97643.22;5050622;28;21085;-71
2023/03/05 02:02:23;;;;;;;35.50;19.90;;;;;;;7.22;50.38;97640.09;5023267;28;20438;-72
2023/03/05 02:04:53;;;;;;;40.47;18.93;;;;;;;7.25;50.57;97640.81;5048846;28;20433;-71
2023/03/05 02:07:18;;;;;;;35.80;19.60;;;;;;;7.19;50.70;97627.31;5051134;28;20426;-72
2023/03/05 02:09:44;;;;;;;36.60;18.43;;;;;;;7.25;50.82;97633.00;5047992;28;20453;-70
2023/03/05 02:12:10;;;;;;;37.50;18.77;;;;;;;7.29;50.25;97624.81;5051370;28;20685;-70
2023/03/05 02:14:36;;;;;;;38.03;19.67;;;;;;;7.31;50.42;97628.13;5039875;28;20210;-72
2023/03/05 02:17:02;;;;;;;38.70;20.53;;;;;;;7.35;51.17;97620.88;5055554;28;20428;-72
2023/03/05 02:19:27;;;;;;;39.33;20.93;;;;;;;7.39;50.76;97630.13;5054237;28;20445;-73
2023/03/05 02:21:53;;;;;;;42.07;20.20;;;;;;;7.37;51.27;97613.78;5050434;28;20317;-71
2023/03/05 02:24:35;;;;;;;37.10;19.60;;;;;;;7.41;50.84;97615.19;5047513;28;20171;-71
2023/03/05 02:27:02;;;;;;;35.67;19.57;;;;;;;7.40;50.44;97612.69;5050386;28;21114;-73
2023/03/05 02:29:29;;;;;;;35.23;18.00;;;;;;;7.42;50.96;97616.84;5045594;28;20457;-72
2023/03/05 02:31:54;;;;;;;32.37;18.27;;;;;;;7.46;51.04;97612.22;5056312;28;20429;-73
2023/03/05 02:34:21;;;;;;;37.40;20.07;;;;;;;7.47;50.72;97619.09;5048295;28;20986;-73
2023/03/05 02:36:49;;;;;;;38.67;21.27;;;;;;;7.35;51.35;97610.47;5048099;28;20211;-71
2023/03/05 02:39:15;;;;;;;41.43;20.10;;;;;;;7.44;50.89;97599.28;5062290;28;20440;-70
2023/03/05 02:41:40;;;;;;;40.57;20.73;;;;;;;7.42;51.43;97609.03;5044742;28;20813;-72
2023/03/05 02:44:06;;;;;;;35.40;18.67;;;;;;;7.27;51.79;97602.44;5027117;28;20421;-71
2023/03/05 02:46:32;;;;;;;42.37;23.57;;;;;;;7.29;52.59;97600.53;5055425;28;20186;-70
2023/03/05 02:48:58;;;;;;;44.10;20.37;;;;;;;7.38;52.35;97595.38;5034536;28;20199;-71
2023/03/05 02:51:23;;;;;;;37.30;19.13;;;;;;;7.36;52.26;97596.47;5026656;28;20767;-70
2023/03/05 02:53:49;;;;;;;32.37;17.13;;;;;;;7.41;52.12;97588.28;5045410;28;20290;-72
2023/03/05 02:56:14;;;;;;;32.57;16.87;;;;;;;7.45;52.39;97587.09;5045273;28;20182;-72
2023/03/05 02:58:40;;;;;;;34.70;16.37;;;;;;;7.41;52.36;97589.13;5058552;28;20198;-71
2023/03/05 03:01:07;;;;;;;34.37;16.93;;;;;;;7.44;52.33;97588.03;5049457;28;20183;-71
2023/03/05 03:03:33;;;;;;;29.83;16.50;;;;;;;7.41;52.66;97577.84;5052476;28;20428;-71
2023/03/05 03:05:58;;;;;;;32.80;16.80;;;;;;;7.32;52.55;97585.47;5057129;28;20425;-71
2023/03/05 03:08:23;;;;;;;29.40;15.63;;;;;;;7.42;52.38;97576.91;5060872;28;20183;-71
2023/03/05 03:10:49;;;;;;;29.97;14.40;;;;;;;7.48;52.56;97568.59;5058096;28;20344;-70
2023/03/05 03:13:14;;;;;;;36.73;15.83;;;;;;;7.41;52.23;97572.63;5040038;28;20210;-70
2023/03/05 03:15:40;;;;;;;27.37;15.27;;;;;;;7.46;51.78;97567.88;5056315;28;20178;-71
2023/03/05 03:18:05;;;;;;;28.40;14.10;;;;;;;7.51;52.06;97565.72;5043265;28;20290;-70
2023/03/05 03:20:33;;;;;;;23.00;12.70;;;;;;;7.47;52.17;97567.75;5046517;28;20203;-72
2023/03/05 03:22:59;;;;;;;26.30;12.67;;;;;;;7.46;52.45;97566.09;5052301;28;20175;-73
2023/03/05 03:25:25;;;;;;;25.60;14.20;;;;;;;7.42;52.57;97572.53;5057110;28;20436;-72
2023/03/05 03:27:50;;;;;;;26.37;13.37;;;;;;;7.49;52.60;97565.84;5051063;28;20512;-72
2023/03/05 03:30:16;;;;;;;25.97;14.07;;;;;;;7.41;52.55;97565.66;5053710;28;20241;-72
2023/03/05 03:32:41;;;;;;;34.23;16.30;;;;;;;7.40;52.89;97560.53;5047924;28;20202;-70
2023/03/05 03:35:08;;;;;;;26.17;14.77;;;;;;;7.40;53.24;97557.94;5053007;28;20198;-70
2023/03/05 03:37:33;;;;;;;27.73;14.87;;;;;;;7.40;53.36;97556.16;5062905;28;20264;-71
2023/03/05 03:39:58;;;;;;;30.07;14.93;;;;;;;7.35;53.59;97564.38;5051196;28;20540;-71
2023/03/05 03:42:24;;;;;;;30.43;14.30;;;;;;;7.45;53.58;97551.38;5050853;28;20186;-71
2023/03/05 03:44:49;;;;;;;32.63;15.80;;;;;;;7.48;53.45;97556.38;5050712;28;20190;-71
2023/03/05 03:47:15;;;;;;;31.40;14.83;;;;;;;7.47;53.63;97549.50;5058691;28;20186;-71
2023/03/05 03:49:41;;;;;;;32.60;14.00;;;;;;;7.46;53.70;97549.63;5055259;28;20206;-73
2023/03/05 03:52:06;;;;;;;27.23;13.17;;;;;;;7.42;53.86;97543.00;5050044;28;20437;-72
2023/03/05 03:54:32;;;;;;;25.13;13.67;;;;;;;7.48;53.64;97540.72;5050512;28;20242;-71
2023/03/05 03:56:57;;;;;;;28.00;13.40;;;;;;;7.45;54.02;97546.19;5064334;28;20179;-71
2023/03/05 03:59:23;;;;;;;22.97;12.53;;;;;;;7.44;53.99;97539.31;5051840;28;20290;-71
2023/03/05 04:01:48;;;;;;;23.00;11.57;;;;;;;7.43;54.30;97539.44;5055070;28;20187;-72
2023/03/05 04:04:14;;;;;;;20.67;11.63;;;;;;;7.41;54.33;97531.75;5052866;28;20726;-70
2023/03/05 04:06:40;;;;;;;22.73;12.50;;;;;;;7.46;54.18;97529.56;5054613;28;20179;-71
2023/03/05 04:09:07;;;;;;;26.87;12.10;;;;;;;7.48;54.09;97527.69;5052533;28;20203;-71
2023/03/05 04:11:33;;;;;;;22.27;11.67;;;;;;;7.38;54.43;97526.78;5057976;28;20171;-71
2023/03/05 04:13:58;;;;;;;23.73;12.50;;;;;;;7.43;54.24;97529.00;5064727;28;20453;-71
2023/03/05 04:16:24;;;;;;;24.70;12.63;;;;;;;7.44;54.49;97531.47;5055407;28;20898;-71
2023/03/05 04:18:49;;;;;;;27.87;13.70;;;;;;;7.45;54.24;97533.13;5060010;28;20249;-70
2023/03/05 04:21:14;;;;;;;23.97;13.60;;;;;;;7.41;54.16;97526.53;5033271;28;22420;-71
2023/03/05 04:23:40;;;;;;;31.30;13.87;;;;;;;7.40;53.83;97527.47;5047042;28;20210;-71
2023/03/05 04:26:05;;;;;;;24.47;13.20;;;;;;;7.41;54.29;97525.69;5047935;28;20284;-71
2023/03/05 04:28:31;;;;;;;24.77;13.23;;;;;;;7.35;54.21;97519.19;5052730;28;20188;-72
2023/03/05 04:30:57;;;;;;;26.90;12.97;;;;;;;7.36;54.39;97519.09;5042427;28;20211;-71
2023/03/05 04:33:23;;;;;;;27.40;13.23;;;;;;;7.36;54.00;97515.63;5039441;28;20218;-71
2023/03/05 04:35:49;;;;;;;25.60;13.50;;;;;;;7.35;54.49;97512.22;5053602;28;20186;-74
2023/03/05 04:38:14;;;;;;;25.00;14.00;;;;;;;7.43;53.89;97515.97;5040747;28;20198;-71
2023/03/05 04:40:40;;;;;;;25.40;12.83;;;;;;;7.41;53.55;97510.88;5049248;28;20433;-71
2023/03/05 04:43:05;;;;;;;24.63;12.03;;;;;;;7.45;53.64;97514.88;5048923;28;20772;-71
2023/03/05 04:45:31;;;;;;;24.73;12.90;;;;;;;7.53;53.38;97509.88;5039211;28;20223;-72
2023/03/05 04:47:56;;;;;;;27.30;13.03;;;;;;;7.42;53.88;97509.94;5047405;28;20195;-71
2023/03/05 04:50:22;;;;;;;26.73;13.30;;;;;;;7.40;53.93;97505.78;5047246;28;20199;-71
2023/03/05 04:52:47;;;;;;;23.23;12.73;;;;;;;7.38;53.91;97509.34;5047398;28;20197;-72
2023/03/05 04:55:14;;;;;;;23.63;13.57;;;;;;;7.35;53.87;97504.38;5047246;28;20183;-69
2023/03/05 04:57:39;;;;;;;25.13;12.60;;;;;;;7.41;53.65;97499.59;5048536;28;20206;-72
2023/03/05 05:00:13;;;;;;;23.70;12.47;;;;;;;7.35;53.80;97506.16;5047610;28;20532;-71
2023/03/05 05:02:39;;;;;;;25.57;13.10;;;;;;;7.36;53.56;97498.22;5047552;28;20197;-71
2023/03/05 05:05:05;;;;;;;23.60;11.90;;;;;;;7.36;53.58;97502.59;5049971;28;20521;-71
2023/03/05 05:07:31;;;;;;;25.40;12.50;;;;;;;7.36;54.01;97494.78;5048645;28;20575;-71
2023/03/05 05:09:57;;;;;;;26.53;13.80;;;;;;;7.33;53.65;97500.22;5056553;28;20228;-71
2023/03/05 05:12:22;;;;;;;25.20;12.00;;;;;;;7.34;53.93;97494.06;5055451;28;21197;-73
2023/03/05 05:14:48;;;;;;;24.67;12.53;;;;;;;7.35;54.02;97493.97;5051887;28;20202;-70
2023/03/05 05:17:13;;;;;;;24.93;12.90;;;;;;;7.41;53.77;97495.25;5048433;28;20182;-71
2023/03/05 05:19:39;;;;;;;21.57;11.70;;;;;;;7.43;53.55;97493.34;5040901;28;20690;-71
2023/03/05 05:22:04;;;;;;;22.83;12.50;;;;;;;7.40;53.30;97487.53;5030564;28;20620;-71
2023/03/05 05:24:29;;;;;;;26.17;12.10;;;;;;;7.40;53.46;97493.59;5048337;28;20178;-71
2023/03/05 05:26:55;;;;;;;24.83;11.40;;;;;;;7.41;53.48;97492.63;5047612;28;20270;-71
2023/03/05 05:29:22;;;;;;;21.17;12.20;;;;;;;7.40;53.21;97487.53;5052371;28;20206;-74
2023/03/05 05:31:47;;;;;;;22.60;11.83;;;;;;;7.33;53.42;97487.19;5047891;28;20494;-71
2023/03/05 05:34:13;;;;;;;22.33;11.10;;;;;;;7.33;52.93;97492.41;5044260;28;20466;-71
2023/03/05 05:36:38;;;;;;;26.37;13.27;;;;;;;7.32;53.34;97495.97;5054251;28;20183;-72
2023/03/05 05:39:03;;;;;;;29.10;12.37;;;;;;;7.31;53.33;97487.31;5046428;28;20277;-72
2023/03/05 05:41:29;;;;;;;23.30;12.30;;;;;;;7.35;53.78;97493.13;5039586;28;20198;-71
2023/03/05 05:43:54;;;;;;;22.47;11.70;;;;;;;7.33;52.87;97493.25;5047478;28;20186;-70
2023/03/05 05:46:20;;;;;;;21.23;12.10;;;;;;;7.33;52.83;97497.63;5051719;28;20267;-70
2023/03/05 05:48:47;;;;;;;22.77;11.27;;;;;;;7.34;53.31;97494.91;5048494;28;20274;-70
2023/03/05 05:51:15;;;;;;;28.20;12.20;;;;;;;7.33;52.81;97489.81;5048102;28;20833;-71
2023/03/05 05:53:41;;;;;;;23.43;11.90;;;;;;;7.28;53.49;97499.78;5047863;28;20953;-74
2023/03/05 05:56:08;;;;;;;19.17;11.27;;;;;;;7.30;53.28;97492.69;5046843;28;20800;-73
2023/03/05 05:58:35;;;;;;;21.47;11.80;;;;;;;7.30;53.26;97493.50;5037419;28;20429;-70
2023/03/05 06:01:00;;;;;;;25.57;11.57;;;;;;;7.29;53.31;97491.03;5039215;28;20430;-71
2023/03/05 06:03:26;;;;;;;21.67;11.80;;;;;;;7.28;53.46;97497.19;5050810;28;20913;-71
2023/03/05 06:05:51;;;;;;;22.30;11.33;;;;;;;7.25;53.74;97492.22;5055596;28;20179;-72
2023/03/05 06:08:17;;;;;;;22.40;11.80;;;;;;;7.34;53.17;97489.69;5051341;28;20667;-71
2023/03/05 06:10:43;;;;;;;26.30;12.40;;;;;;;7.32;52.80;97494.19;5064486;28;20206;-72
2023/03/05 06:13:08;;;;;;;25.47;12.77;;;;;;;7.30;53.15;97495.28;5053538;28;20452;-71
2023/03/05 06:15:34;;;;;;;29.53;12.17;;;;;;;7.31;52.97;97492.53;5046349;28;20207;-72
2023/03/05 06:17:59;;;;;;;23.80;12.10;;;;;;;7.32;52.64;97490.75;5041184;28;20224;-72
2023/03/05 06:20:27;;;;;;;23.33;12.00;;;;;;;7.33;53.39;97489.81;5052276;28;20199;-73
2023/03/05 06:22:52;;;;;;;22.67;12.10;;;;;;;7.29;52.91;97491.03;5040925;28;20225;-70
2023/03/05 06:25:18;;;;;;;33.50;13.37;;;;;;;7.30;53.15;97488.28;5051021;28;20824;-72
2023/03/05 06:27:43;;;;;;;28.97;12.33;;;;;;;7.30;53.41;97498.72;5045821;28;20183;-71
2023/03/05 06:30:10;;;;;;;23.93;12.50;;;;;;;7.32;53.27;97490.75;5048674;28;20230;-71
2023/03/05 06:32:35;;;;;;;28.03;15.67;;;;;;;7.35;53.56;97495.72;5057807;28;20205;-71
2023/03/05 06:35:01;;;;;;;33.50;15.03;;;;;;;7.34;53.60;97492.31;5049914;28;20930;-69
2023/03/05 06:37:26;;;;;;;22.33;13.17;;;;;;;7.36;53.13;97484.34;5038688;28;20260;-71
2023/03/05 06:39:52;;;;;;;25.77;13.80;;;;;;;7.41;53.01;97487.41;5052882;28;20241;-71
2023/03/05 06:42:18;;;;;;;29.40;13.70;;;;;;;7.35;53.26;97480.91;5049126;28;20195;-70
2023/03/05 06:44:43;;;;;;;27.50;12.03;;;;;;;7.37;52.64;97484.22;5047113;28;20183;-71
2023/03/05 06:47:13;;;;;;;26.47;14.10;;;;;;;7.39;53.36;97484.09;5059460;28;20413;-71
2023/03/05 06:49:39;;;;;;;23.37;12.80;;;;;;;7.37;53.01;97486.00;5057688;28;20301;-70
2023/03/05 06:52:05;;;;;;;23.00;12.90;;;;;;;7.36;53.36;97487.78;5059860;28;20443;-72
2023/03/05 06:54:31;;;;;;;28.43;16.30;;;;;;;7.41;53.31;97486.56;5057817;28;20457;-70
2023/03/05 06:56:56;;;;;;;30.60;16.23;;;;;;;7.46;53.06;97485.25;5059791;28;20425;-72
2023/03/05 06:59:22;;;;;;;24.33;14.27;;;;;;;7.42;53.38;97483.00;5042375;28;20718;-71
2023/03/05 07:01:47;;;;;;;30.90;14.60;;;;;;;7.45;52.84;97475.75;5051322;28;20178;-71
2023/03/05 07:04:13;;;;;;;24.50;13.30;;;;;;;7.47;52.83;97479.06;5058291;28;20269;-71
2023/03/05 07:06:41;;;;;;;26.47;13.40;;;;;;;7.58;52.18;97475.59;5059300;28;20237;-70
2023/03/05 07:09:09;;;;;;;23.07;13.23;;;;;;;7.51;52.52;97479.63;5052146;28;20223;-71
2023/03/05 07:11:34;;;;;;;27.20;13.60;;;;;;;7.57;52.36;97483.53;5061387;28;20416;-71
2023/03/05 07:14:00;;;;;;;23.70;12.87;;;;;;;7.60;52.39;97480.66;5064473;28;20482;-71
2023/03/05 07:16:28;;;;;;;24.40;13.40;;;;;;;7.58;52.35;97475.59;5056105;28;20175;-71
2023/03/05 07:18:55;;;;;;;28.50;14.90;;;;;;;7.58;52.49;97480.81;5057553;28;20278;-69
2023/03/05 07:21:23;;;;;;;25.50;14.10;;;;;;;7.53;52.90;97478.59;5050144;28;20504;-71
2023/03/05 07:23:49;;;;;;;21.97;14.33;;;;;;;7.53;52.38;97472.53;5050205;28;20418;-70
2023/03/05 07:26:15;;;;;;;25.07;15.50;;;;;;;7.52;52.74;97474.31;5045034;28;20425;-72
2023/03/05 07:28:41;;;;;;;35.27;15.50;;;;;;;7.66;52.49;97477.56;5046528;28;20274;-70
2023/03/05 07:31:11;;;;;;;27.13;13.73;;;;;;;7.67;52.28;97476.63;5050391;28;20348;-71
2023/03/05 07:33:36;;;;;;;25.37;14.37;;;;;;;7.73;51.63;97476.09;5056211;28;20472;-71
2023/03/05 07:36:03;;;;;;;31.47;14.77;;;;;;;7.76;51.85;97472.41;5053472;28;20414;-70
2023/03/05 07:38:30;;;;;;;28.53;13.80;;;;;;;7.71;52.47;97472.78;5044673;28;20548;-70
2023/03/05 07:40:56;;;;;;;24.20;13.47;;;;;;;7.73;51.88;97468.25;5046647;28;20441;-71
2023/03/05 07:43:21;;;;;;;29.10;14.17;;;;;;;7.73;52.16;97468.25;5057057;28;20421;-69
2023/03/05 07:45:47;;;;;;;23.70;13.10;;;;;;;7.76;51.71;97465.41;5057311;28;20224;-71
2023/03/05 07:48:17;;;;;;;26.03;14.17;;;;;;;7.76;51.57;97465.41;5052505;28;20274;-71
2023/03/05 07:50:42;;;;;;;23.93;13.30;;;;;;;7.75;51.79;97463.75;5044314;28;20199;-72
2023/03/05 07:53:08;;;;;;;20.90;12.87;;;;;;;7.78;51.97;97466.13;5058729;28;20452;-71
2023/03/05 07:55:34;;;;;;;24.80;14.27;;;;;;;7.82;51.74;97467.50;5055581;28;20179;-71
2023/03/05 07:57:59;;;;;;;25.57;14.13;;;;;;;7.91;51.32;97470.31;5059231;28;20183;-71
2023/03/05 08:00:25;;;;;;;26.00;13.60;;;;;;;7.95;51.94;97471.69;5049813;28;20195;-71
2023/03/05 08:02:50;;;;;;;30.53;14.90;;;;;;;7.98;51.05;97466.22;5048892;28;20191;-71
2023/03/05 08:05:16;;;;;;;30.43;15.30;;;;;;;7.92;51.37;97464.94;5056784;28;20222;-71
2023/03/05 08:07:41;;;;;;;33.87;16.50;;;;;;;7.97;51.59;97465.41;5051108;28;20197;-71
2023/03/05 08:10:08;;;;;;;29.20;15.90;;;;;;;8.03;51.41;97466.66;5056239;28;20309;-70
2023/03/05 08:12:33;;;;;;;26.23;14.17;;;;;;;8.09;51.06;97462.69;5054858;28;20178;-71
2023/03/05 08:14:59;;;;;;;36.03;13.77;;;;;;;8.15;51.05;97467.38;5053397;28;20482;-72
2023/03/05 08:17:24;;;;;;;19.27;13.23;;;;;;;8.17;50.83;97464.66;5055338;28;20186;-71
2023/03/05 08:19:50;;;;;;;26.97;13.07;;;;;;;8.19;50.57;97468.78;5053893;28;20681;-71
2023/03/05 08:22:19;;;;;;;25.10;12.97;;;;;;;8.24;49.93;97460.56;5065261;28;20194;-69
2023/03/05 08:24:44;;;;;;;24.47;14.43;;;;;;;8.26;50.18;97463.88;5050098;28;20699;-72
2023/03/05 08:27:10;;;;;;;22.70;13.73;;;;;;;8.28;50.26;97461.97;5048800;28;20427;-71
2023/03/05 08:29:35;;;;;;;26.90;14.97;;;;;;;8.28;50.62;97461.97;5055313;28;20218;-71
2023/03/05 08:32:01;;;;;;;25.63;13.40;;;;;;;8.30;50.44;97460.03;5057636;28;20281;-72
2023/03/05 08:34:26;;;;;;;23.13;13.47;;;;;;;8.33;50.18;97454.53;5065279;28;20285;-71
2023/03/05 08:36:51;;;;;;;27.80;15.43;;;;;;;8.26;50.43;97448.19;5049269;28;20191;-71
2023/03/05 08:39:17;;;;;;;32.70;15.40;;;;;;;8.35;50.07;97457.84;5059015;28;20229;-72
2023/03/05 08:41:43;;;;;;;23.60;13.73;;;;;;;8.35;49.92;97457.84;5050586;28;20183;-71
2023/03/05 08:44:08;;;;;;;27.57;13.97;;;;;;;8.38;49.94;97452.38;5064075;28;20416;-72
2023/03/05 08:46:34;;;;;;;26.70;14.37;;;;;;;8.39;49.81;97458.41;5058659;28;20266;-72
2023/03/05 08:48:59;;;;;;;24.20;14.13;;;;;;;8.42;49.11;97448.53;5029824;28;20203;-70
2023/03/05 08:51:26;;;;;;;22.47;13.80;;;;;;;8.48;49.82;97451.59;5059120;28;20665;-70
2023/03/05 08:53:53;;;;;;;24.37;14.30;;;;;;;8.44;49.83;97449.22;5049026;28;20219;-71
2023/03/05 08:56:19;;;;;;;24.60;14.17;;;;;;;8.54;49.54;97444.06;5056923;28;20452;-70
2023/03/05 08:58:45;;;;;;;21.57;13.00;;;;;;;8.53;49.06;97438.97;5057312;28;20863;-70
2023/03/05 09:01:11;;;;;;;24.73;13.20;;;;;;;8.61;49.02;97441.72;5048461;28;20218;-72
2023/03/05 09:03:37;;;;;;;23.83;13.20;;;;;;;8.66;48.51;97434.34;5050484;28;20417;-71
2023/03/05 09:06:05;;;;;;;21.00;13.67;;;;;;;8.67;49.19;97437.75;5049341;28;20425;-70
2023/03/05 09:08:31;;;;;;;27.03;14.47;;;;;;;8.77;48.68;97433.38;5050188;28;20179;-71
2023/03/05 09:10:56;;;;;;;25.43;15.07;;;;;;;8.80;48.75;97430.50;5051320;28;20497;-70
2023/03/05 09:13:22;;;;;;;25.23;13.87;;;;;;;8.81;48.71;97431.34;5058840;28;20206;-70
2023/03/05 09:16:01;;;;;;;26.73;15.03;;;;;;;8.78;48.26;97431.59;5056931;28;20189;-71
2023/03/05 09:18:26;;;;;;;28.10;16.00;;;;;;;8.76;48.82;97423.88;5049667;28;20233;-71
2023/03/05 09:20:52;;;;;;;26.53;15.20;;;;;;;8.87;48.20;97425.56;5051878;28;20572;-70
2023/03/05 09:23:17;;;;;;;35.50;17.03;;;;;;;8.93;48.43;97425.03;5056041;28;20180;-72
2023/03/05 09:25:43;;;;;;;26.70;15.27;;;;;;;8.99;47.70;97421.84;5056141;28;20179;-72
2023/03/05 09:28:08;;;;;;;30.60;15.23;;;;;;;9.03;47.16;97419.78;5048792;28;20189;-71
2023/03/05 09:30:34;;;;;;;29.60;14.90;;;;;;;9.06;47.91;97415.13;5048265;28;20341;-70
2023/03/05 09:33:00;;;;;;;21.97;13.57;;;;;;;9.04;47.45;97414.44;5049066;28;20659;-73
2023/03/05 09:35:26;;;;;;;25.03;14.97;;;;;;;9.05;47.78;97413.47;5056026;28;20337;-71
2023/03/05 09:37:52;;;;;;;26.00;14.23;;;;;;;9.11;47.49;97408.63;5042306;28;21010;-73
2023/03/05 09:40:18;;;;;;;27.57;15.93;;;;;;;9.16;47.41;97407.25;5058123;28;20214;-72
2023/03/05 09:43:01;;;;;;;25.50;14.67;;;;;;;9.12;46.64;97402.44;5046961;28;20819;-72
2023/03/05 09:45:30;;;;;;;26.10;14.73;;;;;;;9.15;46.13;97410.00;5047013;28;20916;-71
2023/03/05 09:48:04;;;;;;;29.37;15.73;;;;;;;9.17;46.01;97395.03;5048513;28;20422;-70
2023/03/05 09:50:42;;;;;;;28.23;15.87;;;;;;;9.26;46.16;97402.03;5049011;28;20442;-71
2023/03/05 09:53:30;;;;;;;27.80;15.07;;;;;;;9.31;45.68;97410.28;5055367;28;20457;-71
2023/03/05 09:56:15;;;;;;;25.27;14.40;;;;;;;9.29;46.12;97404.38;5052559;28;20520;-70
2023/03/05 09:58:48;;;;;;;27.70;15.10;;;;;;;9.23;45.61;97394.44;5047245;28;20418;-69
2023/03/05 10:01:25;;;;;;;25.00;14.70;;;;;;;9.17;45.72;97389.78;5039890;28;20434;-71
2023/03/05 10:03:56;;;;;;;25.67;14.83;;;;;;;9.17;46.11;97388.00;5042652;28;20422;-71
2023/03/05 10:06:55;;;;;;;26.00;15.90;;;;;;;9.22;45.84;97385.78;5047081;28;20445;-70
2023/03/05 10:09:30;;;;;;;33.77;15.57;;;;;;;9.25;46.08;97389.91;5031997;28;20489;-70
2023/03/05 10:11:59;;;;;;;26.50;15.30;;;;;;;9.31;45.87;97386.75;5057645;28;21128;-71
2023/03/05 10:14:33;;;;;;;25.87;15.63;;;;;;;9.27;46.18;97384.53;5055372;28;20492;-71
2023/03/05 10:17:20;;;;;;;25.80;14.93;;;;;;;9.34;46.31;97390.88;5051882;28;20440;-71
2023/03/05 10:20:07;;;;;;;24.07;15.90;;;;;;;9.37;46.12;97383.56;5054048;28;20445;-71
2023/03/05 10:22:52;;;;;;;30.33;16.50;;;;;;;9.40;45.94;97381.63;5058725;28;20424;-71
2023/03/05 10:25:48;;;;;;;26.57;15.43;;;;;;;9.38;45.81;97390.44;5050204;28;21137;-71
2023/03/05 10:28:19;;;;;;;28.07;15.43;;;;;;;9.42;45.46;97383.13;5051728;28;20418;-69
2023/03/05 10:31:23;;;;;;;26.77;16.13;;;;;;;9.37;45.36;97380.13;5047002;28;20497;-72
2023/03/05 10:33:58;;;;;;;27.07;14.13;;;;;;;9.40;45.39;97382.44;5036381;28;20575;-73
2023/03/05 10:36:28;;;;;;;23.47;14.97;;;;;;;9.41;45.03;97376.25;5040472;28;20430;-70
2023/03/05 10:39:29;;;;;;;25.60;16.10;;;;;;;9.42;45.42;97369.25;5028401;28;20415;-71
2023/03/05 10:42:01;;;;;;;27.00;15.60;;;;;;;9.43;45.56;97368.28;5053556;28;20452;-71
2023/03/05 10:44:35;;;;;;;25.20;15.77;;;;;;;9.42;45.23;97356.97;5053771;28;20456;-70
2023/03/05 10:47:01;;;;;;;27.30;16.23;;;;;;;9.42;45.04;97361.41;5048469;28;20475;-71
2023/03/05 10:49:44;;;;;;;22.47;14.90;;;;;;;9.44;45.28;97356.84;5032851;28;20448;-70
2023/03/05 10:52:17;;;;;;;31.20;16.63;;;;;;;9.50;45.81;97351.03;5062234;28;20802;-73
2023/03/05 10:54:43;;;;;;;29.23;16.20;;;;;;;9.52;45.20;97352.53;5065258;28;20460;-70
2023/03/05 10:57:41;;;;;;;25.90;14.97;;;;;;;9.56;44.84;97347.88;5081251;28;20413;-70
2023/03/05 11:00:25;;;;;;;34.40;15.40;;;;;;;9.57;45.42;97349.53;5070123;28;20274;-72
2023/03/05 11:03:09;;;;;;;23.80;13.57;;;;;;;9.56;44.78;97336.56;5063157;28;20441;-70
2023/03/05 11:06:35;;;;;;;25.93;15.80;;;;;;;9.56;44.42;97336.56;5039508;28;20424;-70
2023/03/05 11:09:33;;;;;;;27.43;16.33;;;;;;;9.51;44.86;97340.41;5061238;28;20417;-70
2023/03/05 11:12:27;;;;;;;24.87;14.67;;;;;;;9.43;44.85;97329.84;5053775;28;20426;-71
2023/03/05 11:15:56;;;;;;;29.83;15.93;;;;;;;9.48;45.18;97326.81;5041805;28;20467;-70
2023/03/05 11:18:23;;;;;;;25.60;14.87;;;;;;;9.43;44.81;97323.81;5025471;28;21188;-70
2023/03/05 11:21:27;;;;;;;24.40;15.03;;;;;;;9.44;44.84;97328.06;5018363;28;20554;-72
2023/03/05 11:27:50;;;;;;;21.00;14.40;;;;;;;9.45;44.67;97324.50;5052803;28;20493;-70
2023/03/05 11:30:23;;;;;;;25.97;14.57;;;;;;;9.44;43.87;97315.81;5063692;28;20533;-72
2023/03/05 11:32:48;;;;;;;23.50;14.20;;;;;;;9.43;44.02;97315.97;5046312;28;20422;-70